sensor_id;sensor_type;location;lat;lon;timestamp;P1;durP1;ratioP1;P2;durP2;ratioP2
45926;SDS011;31639;47.614;19.684;2022-07-29T00:00:11;2.83;;;1.33;;
45926;SDS011;31639;47.614;19.684;2022-07-29T00:05:13;1.67;;;1.45;;
45926;SDS011;31639;47.614;19.684;2022-07-29T00:10:13;2.20;;;1.50;;
45926;SDS011;31639;47.614;19.684;2022-07-29T00:15:14;2.17;;;1.50;;
45926;SDS011;31639;47.614;19.684;2022-07-29T00:20:14;2.80;;;1.90;;
45926;SDS011;31639;47.614;19.684;2022-07-29T00:25:15;2.35;;;1.70;;
45926;SDS011;31639;47.614;19.684;2022-07-29T00:30:15;2.17;;;1.67;;
45926;SDS011;31639;47.614;19.684;2022-07-29T00:35:16;3.58;;;2.38;;
45926;SDS011;31639;47.614;19.684;2022-07-29T00:40:35;2.22;;;1.92;;
45926;SDS011;31639;47.614;19.684;2022-07-29T00:45:35;2.10;;;1.42;;
45926;SDS011;31639;47.614;19.684;2022-07-29T00:50:36;4.10;;;2.17;;
45926;SDS011;31639;47.614;19.684;2022-07-29T00:55:37;1.70;;;1.50;;
45926;SDS011;31639;47.614;19.684;2022-07-29T01:00:38;2.10;;;1.70;;
45926;SDS011;31639;47.614;19.684;2022-07-29T01:05:41;2.30;;;1.80;;
45926;SDS011;31639;47.614;19.684;2022-07-29T01:10:43;1.85;;;1.48;;
45926;SDS011;31639;47.614;19.684;2022-07-29T01:15:46;1.92;;;1.45;;
45926;SDS011;31639;47.614;19.684;2022-07-29T01:31:57;2.65;;;1.80;;
45926;SDS011;31639;47.614;19.684;2022-07-29T01:42:27;1.90;;;1.58;;
45926;SDS011;31639;47.614;19.684;2022-07-29T01:47:39;3.38;;;2.17;;
45926;SDS011;31639;47.614;19.684;2022-07-29T01:52:52;2.25;;;1.60;;
45926;SDS011;31639;47.614;19.684;2022-07-29T01:57:59;4.15;;;1.77;;
45926;SDS011;31639;47.614;19.684;2022-07-29T02:03:04;1.98;;;1.67;;
45926;SDS011;31639;47.614;19.684;2022-07-29T02:08:08;4.57;;;2.30;;
45926;SDS011;31639;47.614;19.684;2022-07-29T02:13:11;1.42;;;1.20;;
45926;SDS011;31639;47.614;19.684;2022-07-29T02:18:17;4.43;;;2.15;;
45926;SDS011;31639;47.614;19.684;2022-07-29T02:23:20;2.00;;;1.50;;
45926;SDS011;31639;47.614;19.684;2022-07-29T02:28:22;2.10;;;1.48;;
45926;SDS011;31639;47.614;19.684;2022-07-29T02:33:26;4.47;;;1.52;;
45926;SDS011;31639;47.614;19.684;2022-07-29T02:38:28;1.90;;;1.48;;
45926;SDS011;31639;47.614;19.684;2022-07-29T02:43:50;3.20;;;1.58;;
45926;SDS011;31639;47.614;19.684;2022-07-29T02:54:04;2.67;;;1.95;;
45926;SDS011;31639;47.614;19.684;2022-07-29T02:59:08;2.75;;;1.85;;
45926;SDS011;31639;47.614;19.684;2022-07-29T03:04:11;1.73;;;1.33;;
45926;SDS011;31639;47.614;19.684;2022-07-29T03:09:14;2.25;;;1.42;;
45926;SDS011;31639;47.614;19.684;2022-07-29T03:14:15;2.30;;;1.90;;
45926;SDS011;31639;47.614;19.684;2022-07-29T03:19:17;2.05;;;1.63;;
45926;SDS011;31639;47.614;19.684;2022-07-29T03:24:33;2.00;;;1.65;;
45926;SDS011;31639;47.614;19.684;2022-07-29T03:29:35;2.35;;;1.70;;
45926;SDS011;31639;47.614;19.684;2022-07-29T03:34:36;3.20;;;1.58;;
45926;SDS011;31639;47.614;19.684;2022-07-29T03:39:38;1.63;;;1.33;;
45926;SDS011;31639;47.614;19.684;2022-07-29T03:44:41;2.05;;;1.85;;
45926;SDS011;31639;47.614;19.684;2022-07-29T03:49:44;2.88;;;1.58;;
45926;SDS011;31639;47.614;19.684;2022-07-29T03:54:48;2.55;;;1.63;;
45926;SDS011;31639;47.614;19.684;2022-07-29T03:59:49;4.13;;;2.35;;
45926;SDS011;31639;47.614;19.684;2022-07-29T04:04:51;3.00;;;1.90;;
45926;SDS011;31639;47.614;19.684;2022-07-29T04:09:52;2.10;;;1.63;;
45926;SDS011;31639;47.614;19.684;2022-07-29T04:14:52;2.20;;;1.95;;
45926;SDS011;31639;47.614;19.684;2022-07-29T04:19:53;2.58;;;1.80;;
45926;SDS011;31639;47.614;19.684;2022-07-29T04:24:53;2.75;;;1.67;;
45926;SDS011;31639;47.614;19.684;2022-07-29T04:29:54;3.03;;;1.90;;
45926;SDS011;31639;47.614;19.684;2022-07-29T04:34:54;4.60;;;2.20;;
45926;SDS011;31639;47.614;19.684;2022-07-29T04:39:54;2.03;;;1.60;;
45926;SDS011;31639;47.614;19.684;2022-07-29T04:44:55;5.20;;;2.67;;
45926;SDS011;31639;47.614;19.684;2022-07-29T04:49:55;3.77;;;1.80;;
45926;SDS011;31639;47.614;19.684;2022-07-29T04:54:56;2.70;;;1.75;;
45926;SDS011;31639;47.614;19.684;2022-07-29T04:59:56;2.53;;;1.80;;
45926;SDS011;31639;47.614;19.684;2022-07-29T05:04:57;2.17;;;1.98;;
45926;SDS011;31639;47.614;19.684;2022-07-29T05:09:57;2.78;;;1.95;;
45926;SDS011;31639;47.614;19.684;2022-07-29T05:14:58;2.75;;;1.83;;
45926;SDS011;31639;47.614;19.684;2022-07-29T05:19:59;4.78;;;2.45;;
45926;SDS011;31639;47.614;19.684;2022-07-29T05:24:59;3.13;;;2.60;;
45926;SDS011;31639;47.614;19.684;2022-07-29T05:29:59;4.33;;;2.90;;
45926;SDS011;31639;47.614;19.684;2022-07-29T05:35:00;2.85;;;2.05;;
45926;SDS011;31639;47.614;19.684;2022-07-29T05:40:01;2.95;;;2.00;;
45926;SDS011;31639;47.614;19.684;2022-07-29T05:45:02;2.67;;;1.90;;
45926;SDS011;31639;47.614;19.684;2022-07-29T05:50:03;5.40;;;2.38;;
45926;SDS011;31639;47.614;19.684;2022-07-29T05:55:04;2.35;;;2.00;;
45926;SDS011;31639;47.614;19.684;2022-07-29T06:00:05;3.92;;;2.20;;
45926;SDS011;31639;47.614;19.684;2022-07-29T06:05:06;3.47;;;2.30;;
45926;SDS011;31639;47.614;19.684;2022-07-29T06:10:07;2.83;;;2.15;;
45926;SDS011;31639;47.614;19.684;2022-07-29T06:15:08;3.40;;;2.00;;
45926;SDS011;31639;47.614;19.684;2022-07-29T06:20:09;2.97;;;2.38;;
45926;SDS011;31639;47.614;19.684;2022-07-29T06:25:10;2.25;;;1.70;;
45926;SDS011;31639;47.614;19.684;2022-07-29T06:30:12;3.35;;;2.20;;
45926;SDS011;31639;47.614;19.684;2022-07-29T06:35:12;2.45;;;1.75;;
45926;SDS011;31639;47.614;19.684;2022-07-29T06:40:13;2.53;;;1.97;;
45926;SDS011;31639;47.614;19.684;2022-07-29T06:45:34;3.40;;;1.75;;
45926;SDS011;31639;47.614;19.684;2022-07-29T06:50:35;2.28;;;1.80;;
45926;SDS011;31639;47.614;19.684;2022-07-29T06:55:36;2.38;;;1.92;;
45926;SDS011;31639;47.614;19.684;2022-07-29T07:00:37;2.80;;;2.08;;
45926;SDS011;31639;47.614;19.684;2022-07-29T07:05:38;3.72;;;2.00;;
45926;SDS011;31639;47.614;19.684;2022-07-29T07:10:39;2.10;;;1.85;;
45926;SDS011;31639;47.614;19.684;2022-07-29T07:15:40;2.70;;;2.08;;
45926;SDS011;31639;47.614;19.684;2022-07-29T07:20:40;4.15;;;2.50;;
45926;SDS011;31639;47.614;19.684;2022-07-29T07:25:41;2.78;;;2.10;;
45926;SDS011;31639;47.614;19.684;2022-07-29T07:30:42;2.92;;;2.20;;
45926;SDS011;31639;47.614;19.684;2022-07-29T07:35:42;4.28;;;2.20;;
45926;SDS011;31639;47.614;19.684;2022-07-29T07:40:44;3.17;;;2.20;;
45926;SDS011;31639;47.614;19.684;2022-07-29T07:45:46;3.97;;;2.58;;
45926;SDS011;31639;47.614;19.684;2022-07-29T07:50:46;2.43;;;2.20;;
45926;SDS011;31639;47.614;19.684;2022-07-29T07:55:49;3.00;;;2.10;;
45926;SDS011;31639;47.614;19.684;2022-07-29T08:00:49;2.88;;;2.58;;
45926;SDS011;31639;47.614;19.684;2022-07-29T08:05:50;3.85;;;2.35;;
45926;SDS011;31639;47.614;19.684;2022-07-29T08:10:51;4.03;;;2.15;;
45926;SDS011;31639;47.614;19.684;2022-07-29T08:15:52;2.30;;;2.10;;
45926;SDS011;31639;47.614;19.684;2022-07-29T08:20:59;3.72;;;2.55;;
45926;SDS011;31639;47.614;19.684;2022-07-29T08:26:00;3.47;;;2.20;;
45926;SDS011;31639;47.614;19.684;2022-07-29T08:31:01;5.03;;;2.83;;
45926;SDS011;31639;47.614;19.684;2022-07-29T08:36:01;2.60;;;1.80;;
45926;SDS011;31639;47.614;19.684;2022-07-29T08:41:02;1.98;;;1.73;;
45926;SDS011;31639;47.614;19.684;2022-07-29T08:46:02;3.95;;;2.13;;
45926;SDS011;31639;47.614;19.684;2022-07-29T08:51:03;2.70;;;2.45;;
45926;SDS011;31639;47.614;19.684;2022-07-29T08:56:06;2.17;;;1.90;;
45926;SDS011;31639;47.614;19.684;2022-07-29T09:01:07;2.57;;;1.93;;
45926;SDS011;31639;47.614;19.684;2022-07-29T09:06:08;3.50;;;2.05;;
45926;SDS011;31639;47.614;19.684;2022-07-29T09:11:13;1.70;;;1.55;;
45926;SDS011;31639;47.614;19.684;2022-07-29T09:16:13;3.45;;;2.10;;
45926;SDS011;31639;47.614;19.684;2022-07-29T09:21:15;2.22;;;2.00;;
45926;SDS011;31639;47.614;19.684;2022-07-29T09:26:41;2.10;;;1.90;;
45926;SDS011;31639;47.614;19.684;2022-07-29T09:31:47;2.00;;;1.80;;
45926;SDS011;31639;47.614;19.684;2022-07-29T09:36:50;2.60;;;1.65;;
45926;SDS011;31639;47.614;19.684;2022-07-29T09:41:52;6.32;;;1.70;;
45926;SDS011;31639;47.614;19.684;2022-07-29T09:46:59;3.58;;;1.85;;
45926;SDS011;31639;47.614;19.684;2022-07-29T09:52:07;2.10;;;1.70;;
45926;SDS011;31639;47.614;19.684;2022-07-29T09:57:09;2.47;;;1.70;;
45926;SDS011;31639;47.614;19.684;2022-07-29T10:02:27;1.77;;;1.40;;
45926;SDS011;31639;47.614;19.684;2022-07-29T10:07:46;2.25;;;1.98;;
45926;SDS011;31639;47.614;19.684;2022-07-29T10:13:10;1.92;;;1.70;;
45926;SDS011;31639;47.614;19.684;2022-07-29T10:18:10;3.00;;;2.15;;
45926;SDS011;31639;47.614;19.684;2022-07-29T10:23:12;1.48;;;1.35;;
45926;SDS011;31639;47.614;19.684;2022-07-29T10:28:12;2.17;;;1.83;;
45926;SDS011;31639;47.614;19.684;2022-07-29T10:43:30;1.58;;;1.48;;
45926;SDS011;31639;47.614;19.684;2022-07-29T10:48:54;2.58;;;1.52;;
45926;SDS011;31639;47.614;19.684;2022-07-29T10:54:11;1.48;;;1.35;;
45926;SDS011;31639;47.614;19.684;2022-07-29T11:09:43;2.20;;;1.40;;
45926;SDS011;31639;47.614;19.684;2022-07-29T11:19:51;2.13;;;1.50;;
45926;SDS011;31639;47.614;19.684;2022-07-29T11:31:09;1.40;;;1.20;;
45926;SDS011;31639;47.614;19.684;2022-07-29T11:36:11;1.55;;;1.45;;
45926;SDS011;31639;47.614;19.684;2022-07-29T11:51:50;1.85;;;1.65;;
45926;SDS011;31639;47.614;19.684;2022-07-29T11:56:52;1.50;;;1.23;;
45926;SDS011;31639;47.614;19.684;2022-07-29T12:01:56;3.25;;;1.88;;
45926;SDS011;31639;47.614;19.684;2022-07-29T12:06:58;1.70;;;1.48;;
45926;SDS011;31639;47.614;19.684;2022-07-29T12:12:00;1.50;;;1.30;;
45926;SDS011;31639;47.614;19.684;2022-07-29T12:17:01;2.90;;;2.40;;
45926;SDS011;31639;47.614;19.684;2022-07-29T12:22:01;1.60;;;1.47;;
45926;SDS011;31639;47.614;19.684;2022-07-29T12:27:02;1.20;;;1.10;;
45926;SDS011;31639;47.614;19.684;2022-07-29T12:32:03;2.97;;;1.30;;
45926;SDS011;31639;47.614;19.684;2022-07-29T12:37:06;1.73;;;1.50;;
45926;SDS011;31639;47.614;19.684;2022-07-29T12:42:15;2.03;;;1.50;;
45926;SDS011;31639;47.614;19.684;2022-07-29T12:47:16;1.42;;;1.20;;
45926;SDS011;31639;47.614;19.684;2022-07-29T12:52:25;1.80;;;1.30;;
45926;SDS011;31639;47.614;19.684;2022-07-29T12:57:27;1.98;;;1.30;;
45926;SDS011;31639;47.614;19.684;2022-07-29T13:02:28;1.83;;;1.37;;
45926;SDS011;31639;47.614;19.684;2022-07-29T13:07:30;2.27;;;1.30;;
45926;SDS011;31639;47.614;19.684;2022-07-29T13:12:32;2.05;;;1.48;;
45926;SDS011;31639;47.614;19.684;2022-07-29T13:17:39;2.53;;;1.40;;
45926;SDS011;31639;47.614;19.684;2022-07-29T13:22:41;2.70;;;1.52;;
45926;SDS011;31639;47.614;19.684;2022-07-29T13:27:42;2.67;;;1.35;;
45926;SDS011;31639;47.614;19.684;2022-07-29T13:32:44;1.80;;;1.70;;
45926;SDS011;31639;47.614;19.684;2022-07-29T13:37:45;1.92;;;1.30;;
45926;SDS011;31639;47.614;19.684;2022-07-29T13:42:46;1.60;;;1.30;;
45926;SDS011;31639;47.614;19.684;2022-07-29T13:47:46;1.37;;;1.17;;
45926;SDS011;31639;47.614;19.684;2022-07-29T13:52:47;1.97;;;1.40;;
45926;SDS011;31639;47.614;19.684;2022-07-29T14:02:48;2.10;;;1.30;;
45926;SDS011;31639;47.614;19.684;2022-07-29T14:12:49;2.22;;;1.30;;
45926;SDS011;31639;47.614;19.684;2022-07-29T14:17:49;1.47;;;1.37;;
45926;SDS011;31639;47.614;19.684;2022-07-29T14:27:50;2.13;;;1.48;;
45926;SDS011;31639;47.614;19.684;2022-07-29T14:32:53;1.65;;;1.25;;
45926;SDS011;31639;47.614;19.684;2022-07-29T14:37:54;1.57;;;1.27;;
45926;SDS011;31639;47.614;19.684;2022-07-29T14:42:54;3.03;;;1.50;;
45926;SDS011;31639;47.614;19.684;2022-07-29T14:47:54;1.77;;;1.50;;
45926;SDS011;31639;47.614;19.684;2022-07-29T14:52:55;3.43;;;1.50;;
45926;SDS011;31639;47.614;19.684;2022-07-29T14:57:55;2.55;;;1.75;;
45926;SDS011;31639;47.614;19.684;2022-07-29T15:02:56;1.43;;;1.30;;
45926;SDS011;31639;47.614;19.684;2022-07-29T15:07:57;1.77;;;1.67;;
45926;SDS011;31639;47.614;19.684;2022-07-29T15:12:58;1.60;;;1.48;;
45926;SDS011;31639;47.614;19.684;2022-07-29T15:17:59;1.57;;;1.30;;
45926;SDS011;31639;47.614;19.684;2022-07-29T15:23:00;2.83;;;1.77;;
45926;SDS011;31639;47.614;19.684;2022-07-29T15:28:00;2.50;;;1.30;;
45926;SDS011;31639;47.614;19.684;2022-07-29T15:33:02;2.03;;;1.50;;
45926;SDS011;31639;47.614;19.684;2022-07-29T15:38:03;3.30;;;1.50;;
45926;SDS011;31639;47.614;19.684;2022-07-29T15:43:03;2.10;;;1.47;;
45926;SDS011;31639;47.614;19.684;2022-07-29T15:48:05;2.15;;;1.38;;
45926;SDS011;31639;47.614;19.684;2022-07-29T15:53:07;2.83;;;1.73;;
45926;SDS011;31639;47.614;19.684;2022-07-29T15:58:07;1.77;;;1.50;;
45926;SDS011;31639;47.614;19.684;2022-07-29T16:03:07;1.73;;;1.50;;
45926;SDS011;31639;47.614;19.684;2022-07-29T16:08:08;2.50;;;1.67;;
45926;SDS011;31639;47.614;19.684;2022-07-29T16:13:08;2.30;;;1.67;;
45926;SDS011;31639;47.614;19.684;2022-07-29T16:18:09;1.53;;;1.43;;
45926;SDS011;31639;47.614;19.684;2022-07-29T16:23:09;1.73;;;1.60;;
45926;SDS011;31639;47.614;19.684;2022-07-29T16:28:11;2.00;;;1.60;;
45926;SDS011;31639;47.614;19.684;2022-07-29T16:33:11;1.80;;;1.40;;
45926;SDS011;31639;47.614;19.684;2022-07-29T16:38:11;2.43;;;1.83;;
45926;SDS011;31639;47.614;19.684;2022-07-29T16:43:12;2.90;;;1.57;;
45926;SDS011;31639;47.614;19.684;2022-07-29T16:48:13;2.25;;;1.90;;
45926;SDS011;31639;47.614;19.684;2022-07-29T16:53:14;2.40;;;1.95;;
45926;SDS011;31639;47.614;19.684;2022-07-29T16:58:14;3.70;;;1.73;;
45926;SDS011;31639;47.614;19.684;2022-07-29T17:03:15;2.67;;;2.25;;
45926;SDS011;31639;47.614;19.684;2022-07-29T17:08:15;2.73;;;2.03;;
45926;SDS011;31639;47.614;19.684;2022-07-29T17:13:15;3.22;;;2.22;;
45926;SDS011;31639;47.614;19.684;2022-07-29T17:18:16;2.70;;;2.43;;
45926;SDS011;31639;47.614;19.684;2022-07-29T17:23:16;8.70;;;2.75;;
45926;SDS011;31639;47.614;19.684;2022-07-29T17:28:17;3.60;;;2.40;;
45926;SDS011;31639;47.614;19.684;2022-07-29T17:33:17;3.60;;;2.30;;
45926;SDS011;31639;47.614;19.684;2022-07-29T17:38:18;4.87;;;3.20;;
45926;SDS011;31639;47.614;19.684;2022-07-29T17:43:18;5.40;;;3.10;;
45926;SDS011;31639;47.614;19.684;2022-07-29T17:48:18;4.90;;;2.40;;
45926;SDS011;31639;47.614;19.684;2022-07-29T17:53:19;3.92;;;3.08;;
45926;SDS011;31639;47.614;19.684;2022-07-29T17:58:19;2.77;;;2.33;;
45926;SDS011;31639;47.614;19.684;2022-07-29T18:03:20;3.37;;;2.53;;
45926;SDS011;31639;47.614;19.684;2022-07-29T18:08:20;6.35;;;3.08;;
45926;SDS011;31639;47.614;19.684;2022-07-29T18:13:21;4.57;;;2.13;;
45926;SDS011;31639;47.614;19.684;2022-07-29T18:18:21;3.97;;;2.83;;
45926;SDS011;31639;47.614;19.684;2022-07-29T18:23:21;4.30;;;2.30;;
45926;SDS011;31639;47.614;19.684;2022-07-29T18:28:22;2.85;;;2.33;;
45926;SDS011;31639;47.614;19.684;2022-07-29T18:33:22;2.90;;;2.28;;
45926;SDS011;31639;47.614;19.684;2022-07-29T18:38:23;3.03;;;2.22;;
45926;SDS011;31639;47.614;19.684;2022-07-29T18:43:23;6.03;;;3.47;;
45926;SDS011;31639;47.614;19.684;2022-07-29T18:48:24;2.67;;;2.10;;
45926;SDS011;31639;47.614;19.684;2022-07-29T18:53:24;2.58;;;2.28;;
45926;SDS011;31639;47.614;19.684;2022-07-29T18:58:24;6.03;;;2.50;;
45926;SDS011;31639;47.614;19.684;2022-07-29T19:03:25;3.90;;;2.33;;
45926;SDS011;31639;47.614;19.684;2022-07-29T19:08:25;2.40;;;2.03;;
45926;SDS011;31639;47.614;19.684;2022-07-29T19:13:25;3.10;;;1.70;;
45926;SDS011;31639;47.614;19.684;2022-07-29T19:18:26;2.03;;;1.83;;
45926;SDS011;31639;47.614;19.684;2022-07-29T19:23:26;3.28;;;1.95;;
45926;SDS011;31639;47.614;19.684;2022-07-29T19:28:27;5.97;;;2.43;;
45926;SDS011;31639;47.614;19.684;2022-07-29T19:33:27;3.03;;;2.00;;
45926;SDS011;31639;47.614;19.684;2022-07-29T19:38:28;5.60;;;1.95;;
45926;SDS011;31639;47.614;19.684;2022-07-29T19:43:28;2.90;;;2.40;;
45926;SDS011;31639;47.614;19.684;2022-07-29T19:48:30;4.60;;;2.22;;
45926;SDS011;31639;47.614;19.684;2022-07-29T19:53:31;3.93;;;2.40;;
45926;SDS011;31639;47.614;19.684;2022-07-29T19:58:31;4.50;;;2.30;;
45926;SDS011;31639;47.614;19.684;2022-07-29T20:03:32;4.32;;;2.85;;
45926;SDS011;31639;47.614;19.684;2022-07-29T20:08:33;5.17;;;3.20;;
45926;SDS011;31639;47.614;19.684;2022-07-29T20:13:33;2.50;;;1.95;;
45926;SDS011;31639;47.614;19.684;2022-07-29T20:18:34;2.55;;;1.80;;
45926;SDS011;31639;47.614;19.684;2022-07-29T20:23:34;5.10;;;3.33;;
45926;SDS011;31639;47.614;19.684;2022-07-29T20:28:36;6.32;;;3.83;;
45926;SDS011;31639;47.614;19.684;2022-07-29T20:33:39;7.15;;;4.30;;
45926;SDS011;31639;47.614;19.684;2022-07-29T20:38:39;5.75;;;3.40;;
45926;SDS011;31639;47.614;19.684;2022-07-29T20:43:40;5.15;;;2.88;;
45926;SDS011;31639;47.614;19.684;2022-07-29T20:48:40;3.13;;;2.53;;
45926;SDS011;31639;47.614;19.684;2022-07-29T20:53:41;5.15;;;3.22;;
45926;SDS011;31639;47.614;19.684;2022-07-29T20:58:41;4.75;;;2.72;;
45926;SDS011;31639;47.614;19.684;2022-07-29T21:03:42;2.42;;;1.88;;
45926;SDS011;31639;47.614;19.684;2022-07-29T21:08:42;12.55;;;3.47;;
45926;SDS011;31639;47.614;19.684;2022-07-29T21:13:43;2.67;;;2.13;;
45926;SDS011;31639;47.614;19.684;2022-07-29T21:18:45;3.00;;;2.03;;
45926;SDS011;31639;47.614;19.684;2022-07-29T21:23:46;2.88;;;2.10;;
45926;SDS011;31639;47.614;19.684;2022-07-29T21:28:47;4.60;;;2.43;;
45926;SDS011;31639;47.614;19.684;2022-07-29T21:33:47;5.57;;;2.63;;
45926;SDS011;31639;47.614;19.684;2022-07-29T21:38:48;3.10;;;2.47;;
45926;SDS011;31639;47.614;19.684;2022-07-29T21:43:48;2.93;;;2.20;;
45926;SDS011;31639;47.614;19.684;2022-07-29T21:48:49;2.50;;;2.10;;
45926;SDS011;31639;47.614;19.684;2022-07-29T21:53:49;3.43;;;2.30;;
45926;SDS011;31639;47.614;19.684;2022-07-29T21:58:49;4.43;;;2.47;;
45926;SDS011;31639;47.614;19.684;2022-07-29T22:03:50;5.07;;;2.55;;
45926;SDS011;31639;47.614;19.684;2022-07-29T22:08:50;5.60;;;2.13;;
45926;SDS011;31639;47.614;19.684;2022-07-29T22:13:51;3.20;;;2.20;;
45926;SDS011;31639;47.614;19.684;2022-07-29T22:18:51;2.85;;;1.92;;
45926;SDS011;31639;47.614;19.684;2022-07-29T22:23:52;3.77;;;2.90;;
45926;SDS011;31639;47.614;19.684;2022-07-29T22:28:52;4.00;;;2.30;;
45926;SDS011;31639;47.614;19.684;2022-07-29T22:33:52;3.10;;;2.00;;
45926;SDS011;31639;47.614;19.684;2022-07-29T22:38:53;4.17;;;2.67;;
45926;SDS011;31639;47.614;19.684;2022-07-29T22:43:53;3.43;;;1.67;;
45926;SDS011;31639;47.614;19.684;2022-07-29T22:48:54;3.25;;;2.13;;
45926;SDS011;31639;47.614;19.684;2022-07-29T22:53:54;2.75;;;2.33;;
45926;SDS011;31639;47.614;19.684;2022-07-29T22:58:55;3.65;;;1.90;;
45926;SDS011;31639;47.614;19.684;2022-07-29T23:03:55;5.38;;;2.20;;
45926;SDS011;31639;47.614;19.684;2022-07-29T23:08:56;1.92;;;1.63;;
45926;SDS011;31639;47.614;19.684;2022-07-29T23:13:56;3.25;;;2.10;;
45926;SDS011;31639;47.614;19.684;2022-07-29T23:19:02;3.55;;;2.67;;
45926;SDS011;31639;47.614;19.684;2022-07-29T23:24:02;6.18;;;2.28;;
45926;SDS011;31639;47.614;19.684;2022-07-29T23:29:03;6.05;;;3.70;;
45926;SDS011;31639;47.614;19.684;2022-07-29T23:34:04;4.13;;;2.38;;
45926;SDS011;31639;47.614;19.684;2022-07-29T23:39:04;7.15;;;3.10;;
45926;SDS011;31639;47.614;19.684;2022-07-29T23:44:10;4.03;;;2.63;;
45926;SDS011;31639;47.614;19.684;2022-07-29T23:49:10;3.75;;;2.38;;
45926;SDS011;31639;47.614;19.684;2022-07-29T23:54:12;3.20;;;2.40;;
45926;SDS011;31639;47.614;19.684;2022-07-29T23:59:12;3.17;;;2.55;;
